Time;durP1;ratioP1;P1;durP2;ratioP2;P2;SDS_P1;SDS_P2;PMS_P1;PMS_P2;Temp;Humidity;BMP_temperature;BMP_pressure;BME280_temperature;BME280_humidity;BME280_pressure;Samples;Min_cycle;Max_cycle;Signal;HPM_P1;HPM_P2
2021/01/27 00:00:44;;;;;;;18.10;12.65;;;;;;;0.04;72.22;98681.56;1795124;80;21115;-63
2021/01/27 00:03:12;;;;;;;15.30;10.65;;;;;;;-0.01;72.41;98672.70;1795178;79;21226;-62
2021/01/27 00:05:43;;;;;;;17.45;12.13;;;;;;;-0.04;72.54;98670.17;1795121;80;23551;-62
2021/01/27 00:08:11;;;;;;;15.40;11.43;;;;;;;-0.03;72.66;98669.74;1795156;80;21058;-63
2021/01/27 00:10:39;;;;;;;15.85;11.10;;;;;;;-0.03;72.78;98659.52;1795259;80;21505;-63
2021/01/27 00:13:10;;;;;;;17.45;11.78;;;;;;;-0.03;72.76;98653.97;1795169;80;21076;-62
2021/01/27 00:15:40;;;;;;;16.57;10.63;;;;;;;-0.03;72.92;98650.14;1795142;80;21084;-62
2021/01/27 00:18:10;;;;;;;16.90;11.38;;;;;;;-0.01;72.92;98655.23;1795224;80;22316;-62
2021/01/27 00:20:38;;;;;;;17.95;12.13;;;;;;;0.01;72.98;98653.48;1795361;78;21072;-62
2021/01/27 00:23:06;;;;;;;18.95;12.73;;;;;;;0.02;72.98;98652.61;1821008;78;21083;-61
2021/01/27 00:25:36;;;;;;;20.37;13.13;;;;;;;0.03;72.89;98654.73;1821018;78;21582;-63
2021/01/27 00:28:04;;;;;;;16.10;10.58;;;;;;;-0.02;72.88;98650.55;1821073;78;21555;-62
2021/01/27 00:30:36;;;;;;;20.25;12.37;;;;;;;-0.04;72.90;98656.11;1821024;78;21376;-63
2021/01/27 00:33:05;;;;;;;17.05;11.88;;;;;;;-0.08;72.97;98654.45;1820889;78;21155;-62
2021/01/27 00:35:37;;;;;;;17.55;10.95;;;;;;;-0.14;73.11;98653.67;1821016;78;21135;-62
2021/01/27 00:38:16;;;;;;;21.07;12.98;;;;;;;-0.19;73.16;98649.88;1821035;78;21107;-63
2021/01/27 00:40:46;;;;;;;22.25;13.48;;;;;;;-0.22;73.31;98649.09;1821092;78;21119;-62
2021/01/27 00:43:14;;;;;;;21.15;12.93;;;;;;;-0.24;73.34;98642.72;1820998;78;22333;-63
2021/01/27 00:45:42;;;;;;;21.02;12.03;;;;;;;-0.23;73.42;98641.02;1821039;78;21540;-63
2021/01/27 00:48:10;;;;;;;16.02;10.55;;;;;;;-0.20;73.47;98643.08;1821026;78;21060;-62
2021/01/27 00:50:38;;;;;;;14.18;9.50;;;;;;;-0.17;73.49;98636.66;1820980;78;21051;-63
2021/01/27 00:53:06;;;;;;;12.53;8.70;;;;;;;-0.12;73.35;98632.77;1820985;78;21068;-63
2021/01/27 00:55:35;;;;;;;12.47;9.53;;;;;;;-0.12;73.34;98625.95;1820304;78;21201;-63
2021/01/27 00:58:04;;;;;;;13.72;9.70;;;;;;;-0.10;73.32;98619.12;1820911;78;21607;-63
2021/01/27 01:00:36;;;;;;;11.05;8.80;;;;;;;-0.07;73.28;98622.07;1820952;78;21150;-63
2021/01/27 01:03:07;;;;;;;13.25;9.73;;;;;;;-0.06;73.20;98619.93;1821123;78;21556;-63
2021/01/27 01:05:39;;;;;;;11.15;8.28;;;;;;;-0.11;73.16;98614.87;1820996;78;21146;-63
2021/01/27 01:08:07;;;;;;;11.93;8.60;;;;;;;-0.15;73.22;98613.20;1820810;78;21376;-63
2021/01/27 01:10:39;;;;;;;11.73;8.63;;;;;;;-0.21;73.45;98606.07;1820918;78;21797;-63
2021/01/27 01:13:09;;;;;;;10.58;7.67;;;;;;;-0.24;73.55;98599.71;1821109;78;21453;-62
2021/01/27 01:15:36;;;;;;;11.55;8.15;;;;;;;-0.28;73.65;98600.17;1821093;78;21481;-63
2021/01/27 01:18:04;;;;;;;12.47;8.65;;;;;;;-0.32;73.89;98596.39;1820967;78;21103;-63
2021/01/27 01:20:32;;;;;;;11.38;8.53;;;;;;;-0.34;73.99;98593.85;1820934;78;21323;-63
2021/01/27 01:23:00;;;;;;;11.10;7.75;;;;;;;-0.33;74.05;98601.09;1798988;78;21060;-63
2021/01/27 01:25:31;;;;;;;12.28;8.75;;;;;;;-0.37;74.17;98597.28;1795090;80;21044;-63
2021/01/27 01:27:59;;;;;;;10.65;8.90;;;;;;;-0.37;74.14;98592.61;1795220;80;21488;-62
2021/01/27 01:30:40;;;;;;;11.22;8.38;;;;;;;-0.40;74.15;98579.90;1795126;80;21044;-64
2021/01/27 01:33:14;;;;;;;10.58;8.65;;;;;;;-0.44;74.24;98575.68;1795269;80;21248;-63
2021/01/27 01:35:42;;;;;;;12.20;9.18;;;;;;;-0.49;74.27;98580.84;1795172;80;21124;-63
2021/01/27 01:38:10;;;;;;;16.37;11.33;;;;;;;-0.52;74.29;98582.14;1795064;80;21057;-62
2021/01/27 01:40:42;;;;;;;19.15;11.80;;;;;;;-0.56;74.23;98588.58;1795041;79;21072;-62
2021/01/27 01:43:30;;;;;;;15.88;11.85;;;;;;;-0.60;74.39;98581.37;1795119;80;21044;-63
2021/01/27 01:46:11;;;;;;;14.38;9.88;;;;;;;-0.61;74.55;98584.81;1795076;80;21493;-63
2021/01/27 01:48:46;;;;;;;14.10;10.23;;;;;;;-0.65;74.59;98583.58;1787873;79;21087;-62
2021/01/27 01:51:46;;;;;;;14.43;10.30;;;;;;;-0.70;74.79;98578.52;1795086;80;21096;-63
2021/01/27 01:54:34;;;;;;;20.92;11.88;;;;;;;-0.72;74.92;98578.53;1795057;79;21123;-63
2021/01/27 01:57:05;;;;;;;14.90;10.93;;;;;;;-0.74;75.12;98575.14;1795076;80;21131;-63
2021/01/27 01:59:33;;;;;;;15.95;11.25;;;;;;;-0.73;75.11;98578.11;1795042;80;21429;-63
2021/01/27 02:02:03;;;;;;;17.57;12.45;;;;;;;-0.73;75.12;98569.61;1774954;80;21211;-63
2021/01/27 02:04:36;;;;;;;16.77;12.95;;;;;;;-0.72;75.02;98572.58;1795122;80;21151;-63
2021/01/27 02:07:03;;;;;;;16.27;10.72;;;;;;;-0.71;75.00;98575.12;1795234;80;21127;-63
2021/01/27 02:09:31;;;;;;;15.63;10.95;;;;;;;-0.68;74.97;98566.58;1750279;80;21588;-63
2021/01/27 02:12:30;;;;;;;17.40;12.35;;;;;;;-0.64;74.93;98570.80;1795079;80;22022;-62
2021/01/27 02:15:24;;;;;;;15.10;11.03;;;;;;;-0.58;74.84;98581.36;1795043;80;21056;-63
2021/01/27 02:18:14;;;;;;;20.25;11.70;;;;;;;-0.52;74.75;98582.14;1795217;79;21587;-63
2021/01/27 02:21:12;;;;;;;16.32;11.08;;;;;;;-0.49;74.70;98579.98;1795025;80;21207;-63
2021/01/27 02:24:18;;;;;;;17.50;11.15;;;;;;;-0.47;74.57;98576.98;1819165;78;21095;-62
2021/01/27 02:26:51;;;;;;;16.02;10.98;;;;;;;-0.45;74.57;98576.11;1819972;78;22198;-62
2021/01/27 02:29:41;;;;;;;14.47;10.48;;;;;;;-0.45;74.53;98570.16;1820995;78;21062;-62
2021/01/27 02:32:38;;;;;;;15.08;9.58;;;;;;;-0.44;74.43;98569.30;1821065;78;21524;-62
2021/01/27 02:35:35;;;;;;;15.95;11.15;;;;;;;-0.44;74.33;98568.02;1820879;78;21981;-62
2021/01/27 02:38:11;;;;;;;13.18;10.35;;;;;;;-0.43;74.38;98567.16;1795775;78;21130;-62
2021/01/27 02:40:49;;;;;;;13.83;10.35;;;;;;;-0.45;74.32;98567.17;1821023;78;22059;-62
2021/01/27 02:43:36;;;;;;;16.10;10.78;;;;;;;-0.44;74.29;98571.42;1821012;78;21056;-62
2021/01/27 02:46:19;;;;;;;16.17;11.43;;;;;;;-0.44;74.17;98562.91;1820950;78;21131;-62
2021/01/27 02:49:08;;;;;;;18.48;10.98;;;;;;;-0.47;74.17;98569.33;1821099;78;21056;-62
2021/01/27 02:52:02;;;;;;;14.58;10.65;;;;;;;-0.50;74.17;98559.14;1803495;78;21103;-62
2021/01/27 02:54:38;;;;;;;13.40;10.00;;;;;;;-0.52;74.28;98557.03;1820785;78;21484;-62
2021/01/27 02:57:17;;;;;;;12.85;8.88;;;;;;;-0.55;74.43;98549.41;1820872;78;21119;-62
2021/01/27 03:00:06;;;;;;;12.33;9.90;;;;;;;-0.54;74.45;98549.81;1821022;78;21130;-62
2021/01/27 03:02:59;;;;;;;14.25;10.38;;;;;;;-0.54;74.52;98541.72;1821112;78;21504;-62
2021/01/27 03:05:42;;;;;;;17.45;11.08;;;;;;;-0.54;74.64;98544.70;1821145;78;21036;-62
2021/01/27 03:08:27;;;;;;;18.73;10.88;;;;;;;-0.52;74.69;98546.38;1821268;78;21365;-63
2021/01/27 03:11:13;;;;;;;16.75;11.20;;;;;;;-0.49;74.80;98541.24;1821158;78;21480;-62
2021/01/27 03:13:43;;;;;;;14.63;10.45;;;;;;;-0.45;74.75;98549.29;1821102;78;21583;-62
2021/01/27 03:16:19;;;;;;;15.98;10.88;;;;;;;-0.44;74.77;98544.59;1796254;78;21567;-62
2021/01/27 03:18:56;;;;;;;14.93;10.35;;;;;;;-0.42;74.78;98550.97;1821112;78;21477;-62
2021/01/27 03:21:26;;;;;;;14.85;10.80;;;;;;;-0.40;74.81;98555.16;1820667;78;21221;-64
2021/01/27 03:24:00;;;;;;;14.30;10.23;;;;;;;-0.34;74.91;98552.97;1821010;78;21567;-62
2021/01/27 03:26:58;;;;;;;15.53;10.00;;;;;;;-0.31;74.68;98548.27;1821186;78;21044;-63
2021/01/27 03:29:47;;;;;;;11.88;9.38;;;;;;;-0.30;74.72;98550.80;1821063;78;21054;-62
2021/01/27 03:32:35;;;;;;;14.25;9.50;;;;;;;-0.26;74.66;98552.45;1821130;78;21103;-63
2021/01/27 03:35:34;;;;;;;13.28;9.48;;;;;;;-0.21;74.59;98551.13;1789885;78;21386;-63
2021/01/27 03:38:32;;;;;;;14.35;9.20;;;;;;;-0.21;74.41;98548.57;1821012;78;21182;-62
2021/01/27 03:41:34;;;;;;;11.33;8.73;;;;;;;-0.21;74.44;98552.41;1818961;78;21071;-62
2021/01/27 03:44:38;;;;;;;12.00;9.17;;;;;;;-0.26;74.53;98549.05;1821332;78;21123;-62
2021/01/27 03:47:28;;;;;;;13.10;9.38;;;;;;;-0.26;74.63;98550.33;1821207;78;21493;-63
2021/01/27 03:50:04;;;;;;;24.07;10.00;;;;;;;-0.28;74.67;98549.51;1820505;78;21377;-62
2021/01/27 03:52:42;;;;;;;12.80;9.95;;;;;;;-0.27;74.77;98555.03;1821107;78;21560;-62
2021/01/27 03:55:25;;;;;;;16.12;11.80;;;;;;;-0.25;74.86;98557.14;1796318;78;21485;-62
2021/01/27 03:58:13;;;;;;;16.40;11.38;;;;;;;-0.25;74.85;98554.58;1821195;78;22626;-62
2021/01/27 04:00:40;;;;;;;17.42;11.03;;;;;;;-0.28;74.86;98546.95;1821138;78;21068;-62
2021/01/27 04:03:17;;;;;;;15.13;11.05;;;;;;;-0.28;75.05;98552.91;1821028;78;21377;-62
2021/01/27 04:05:47;;;;;;;16.42;11.48;;;;;;;-0.27;75.09;98545.66;1821114;78;21492;-63
2021/01/27 04:08:16;;;;;;;18.12;11.80;;;;;;;-0.23;74.92;98551.14;1821059;78;21103;-63
2021/01/27 04:10:43;;;;;;;15.98;11.25;;;;;;;-0.24;75.00;98548.17;1821037;78;21103;-63
2021/01/27 04:13:10;;;;;;;13.78;11.25;;;;;;;-0.24;75.10;98540.94;1821100;78;21758;-63
2021/01/27 04:15:38;;;;;;;15.48;11.28;;;;;;;-0.22;75.18;98545.17;1821033;78;21373;-63
2021/01/27 04:18:06;;;;;;;16.52;11.50;;;;;;;-0.18;75.11;98548.50;1821009;78;21083;-63
2021/01/27 04:20:34;;;;;;;18.90;11.78;;;;;;;-0.18;75.10;98550.63;1820998;78;21104;-63
2021/01/27 04:23:02;;;;;;;15.72;11.57;;;;;;;-0.16;75.01;98553.17;1820882;78;21151;-63
2021/01/27 04:25:30;;;;;;;16.48;11.20;;;;;;;-0.21;74.97;98555.81;1820976;78;21072;-63
2021/01/27 04:27:58;;;;;;;14.87;11.20;;;;;;;-0.22;75.04;98554.55;1821023;78;21275;-63
2021/01/27 04:30:29;;;;;;;21.37;11.40;;;;;;;-0.24;75.10;98553.72;1820926;78;21981;-63
2021/01/27 04:32:58;;;;;;;14.53;10.55;;;;;;;-0.23;75.21;98551.58;1821130;78;21469;-63
2021/01/27 04:35:26;;;;;;;14.33;10.88;;;;;;;-0.23;75.06;98551.14;1821017;78;21064;-63
2021/01/27 04:37:54;;;;;;;19.90;11.43;;;;;;;-0.24;75.14;98545.63;1820976;78;21111;-63
2021/01/27 04:40:37;;;;;;;14.18;10.08;;;;;;;-0.24;75.21;98548.17;1820990;78;21194;-62
2021/01/27 04:43:27;;;;;;;16.15;11.22;;;;;;;-0.24;75.21;98549.89;1821250;78;21115;-63
2021/01/27 04:46:22;;;;;;;16.97;12.10;;;;;;;-0.28;75.18;98551.63;1821025;78;21572;-63
2021/01/27 04:49:22;;;;;;;17.73;11.22;;;;;;;-0.31;75.33;98560.61;1821045;78;21492;-63
2021/01/27 04:52:12;;;;;;;16.45;11.88;;;;;;;-0.33;75.44;98561.48;1820826;78;21071;-63
2021/01/27 04:55:03;;;;;;;19.60;12.25;;;;;;;-0.34;75.56;98565.75;1820948;78;21208;-64
2021/01/27 04:57:51;;;;;;;17.40;11.22;;;;;;;-0.33;75.58;98567.87;1821074;78;21468;-62
2021/01/27 05:00:40;;;;;;;23.85;12.68;;;;;;;-0.31;75.69;98568.27;1769280;78;21110;-62
2021/01/27 05:04:00;;;;;;;22.37;12.40;;;;;;;-0.22;75.59;98569.45;1873602;76;23040;-62
2021/01/27 05:06:31;;;;;;;20.92;13.50;;;;;;;-0.23;75.68;98565.63;1841231;77;21140;-63
2021/01/27 05:09:14;;;;;;;19.92;12.55;;;;;;;-0.16;75.52;98565.95;1841707;77;21175;-62
2021/01/27 05:11:42;;;;;;;21.80;14.23;;;;;;;-0.13;75.49;98562.92;1841542;77;21002;-63
2021/01/27 05:14:10;;;;;;;22.32;13.22;;;;;;;-0.07;75.40;98564.12;1841646;77;20990;-63
2021/01/27 05:16:37;;;;;;;22.40;13.08;;;;;;;-0.02;75.28;98572.59;1785471;78;21541;-63
2021/01/27 05:19:07;;;;;;;20.17;12.95;;;;;;;0.05;75.18;98570.77;1841587;78;21468;-63
2021/01/27 05:21:49;;;;;;;24.55;12.35;;;;;;;0.10;75.11;98572.00;1841574;78;21175;-63
2021/01/27 05:24:16;;;;;;;23.62;13.58;;;;;;;0.16;74.91;98575.75;1813376;78;21493;-62
2021/01/27 05:27:08;;;;;;;18.90;13.13;;;;;;;0.14;74.63;98573.65;1841545;78;21467;-63
2021/01/27 05:29:58;;;;;;;15.48;11.73;;;;;;;0.11;74.78;98585.19;1841653;78;21474;-63
2021/01/27 05:32:26;;;;;;;25.77;14.05;;;;;;;0.14;74.71;98591.55;1841138;78;21125;-63
2021/01/27 05:34:56;;;;;;;24.72;14.85;;;;;;;0.16;74.68;98588.11;1841566;78;21362;-63
2021/01/27 05:37:34;;;;;;;27.17;14.87;;;;;;;0.18;74.70;98586.38;1841443;78;21509;-63
2021/01/27 05:40:15;;;;;;;22.93;14.73;;;;;;;0.21;74.57;98594.41;1841647;77;21060;-63
2021/01/27 05:42:43;;;;;;;28.00;14.68;;;;;;;0.19;74.47;98590.63;1829216;78;21033;-63
2021/01/27 05:45:36;;;;;;;22.07;13.70;;;;;;;0.13;74.65;98593.69;1841535;78;21050;-62
2021/01/27 05:48:24;;;;;;;;;;;;;;;0.14;74.74;98588.55;1844276;78;22090;-62
2021/01/27 05:51:08;;;;;;;21.30;13.70;;;;;;;0.15;74.71;98583.01;1841472;78;20233;-62
2021/01/27 05:53:36;;;;;;;20.27;14.50;;;;;;;0.08;74.86;98584.80;1838661;78;21066;-63
2021/01/27 05:56:21;;;;;;;22.52;15.65;;;;;;;0.08;75.02;98583.95;1808454;78;21053;-63
2021/01/27 05:59:01;;;;;;;30.05;16.97;;;;;;;0.06;75.00;98581.84;1808456;79;21104;-62
2021/01/27 06:01:44;;;;;;;33.90;17.95;;;;;;;0.00;75.33;98582.80;1808395;78;21185;-62
2021/01/27 06:04:22;;;;;;;46.28;17.98;;;;;;;-0.06;75.61;98584.98;1807649;79;21514;-63
2021/01/27 06:06:55;;;;;;;25.12;15.98;;;;;;;-0.09;75.93;98579.91;1791510;78;21099;-63
2021/01/27 06:09:42;;;;;;;30.77;17.35;;;;;;;-0.09;76.18;98579.06;1783100;80;21103;-64
2021/01/27 06:12:24;;;;;;;43.10;19.27;;;;;;;-0.06;76.31;98578.59;1783039;80;21072;-63
2021/01/27 06:15:10;;;;;;;50.52;23.90;;;;;;;-0.09;76.42;98574.80;1782494;80;22247;-63
2021/01/27 06:17:48;;;;;;;40.17;23.27;;;;;;;-0.07;76.47;98574.35;1781683;78;21230;-63
2021/01/27 06:20:31;;;;;;;45.10;23.22;;;;;;;-0.08;76.47;98574.38;1782463;79;21210;-65
2021/01/27 06:23:22;;;;;;;53.13;24.75;;;;;;;-0.08;76.62;98573.94;1782456;79;21148;-65
2021/01/27 06:26:19;;;;;;;52.07;24.50;;;;;;;-0.06;76.51;98573.92;1782329;80;21063;-64
2021/01/27 06:29:18;;;;;;;69.07;34.27;;;;;;;-0.06;76.69;98570.09;1772792;79;21207;-64
2021/01/27 06:32:11;;;;;;;47.43;27.70;;;;;;;0.01;76.60;98569.12;1781284;79;21628;-66
2021/01/27 06:34:54;;;;;;;46.85;25.52;;;;;;;0.02;76.15;98560.58;1757077;79;21167;-65
2021/01/27 06:37:35;;;;;;;46.33;27.13;;;;;;;0.00;76.11;98566.99;1781625;80;21258;-63
2021/01/27 06:40:30;;;;;;;71.35;32.63;;;;;;;0.02;76.09;98565.70;1781128;80;21635;-64
2021/01/27 06:43:20;;;;;;;79.35;41.18;;;;;;;0.04;76.12;98562.69;1780829;79;21206;-64
2021/01/27 06:46:22;;;;;;;100.47;43.83;;;;;;;0.08;75.95;98564.34;1781938;80;21106;-64
2021/01/27 06:49:46;;;;;;;93.07;47.90;;;;;;;0.11;75.95;98559.63;1782435;79;21567;-64
2021/01/27 06:52:53;;;;;;;93.22;41.95;;;;;;;0.12;75.86;98553.64;1782411;80;21556;-63
2021/01/27 06:55:38;;;;;;;35.23;21.10;;;;;;;0.14;75.75;98553.19;1782376;80;21127;-63
2021/01/27 06:58:29;;;;;;;49.80;22.52;;;;;;;0.16;75.73;98552.73;1757567;79;21375;-63
2021/01/27 07:01:04;;;;;;;26.23;18.05;;;;;;;0.20;75.72;98552.65;1782412;80;21146;-63
2021/01/27 07:04:14;;;;;;;35.08;20.27;;;;;;;0.21;75.54;98546.67;1797262;79;21070;-64
2021/01/27 07:07:15;;;;;;;36.23;18.02;;;;;;;0.22;75.61;98539.84;1810813;78;21069;-64
2021/01/27 07:10:02;;;;;;;28.85;16.73;;;;;;;0.25;75.51;98541.08;1761955;81;21073;-64
2021/01/27 07:12:40;;;;;;;32.35;17.05;;;;;;;0.25;75.37;98535.97;1761994;80;21374;-62
2021/01/27 07:15:29;;;;;;;33.20;16.77;;;;;;;0.25;75.56;98525.73;1762044;81;21591;-64
2021/01/27 07:18:29;;;;;;;23.12;13.60;;;;;;;0.30;75.63;98522.25;1761629;81;21147;-63
2021/01/27 07:21:09;;;;;;;22.52;14.58;;;;;;;0.33;75.44;98527.32;1761685;80;21101;-63
2021/01/27 07:24:11;;;;;;;39.67;20.30;;;;;;;0.44;75.42;98531.41;1857625;76;38107;-64
2021/01/27 07:26:45;;;;;;;21.68;16.05;;;;;;;0.50;75.31;98528.77;1837371;77;21150;-64
2021/01/27 07:29:21;;;;;;;22.05;15.78;;;;;;;0.55;75.20;98534.22;1804357;78;21209;-63
2021/01/27 07:32:03;;;;;;;30.32;19.20;;;;;;;0.58;75.34;98531.62;1836733;78;21200;-62
2021/01/27 07:34:42;;;;;;;22.73;15.90;;;;;;;0.66;75.23;98531.47;1838452;77;21550;-63
2021/01/27 07:37:23;;;;;;;21.45;14.70;;;;;;;0.72;74.99;98536.94;1841507;77;21486;-63
2021/01/27 07:40:11;;;;;;;28.80;15.03;;;;;;;0.73;74.64;98539.47;1841525;78;21040;-62
2021/01/27 07:43:17;;;;;;;23.27;13.08;;;;;;;0.71;74.66;98537.36;1841574;78;22264;-62
2021/01/27 07:45:49;;;;;;;21.73;11.28;;;;;;;0.68;74.29;98541.25;1841417;77;21052;-64
2021/01/27 07:48:49;;;;;;;15.58;12.50;;;;;;;0.61;74.33;98529.42;1840993;78;21592;-66
2021/01/27 07:51:30;;;;;;;17.15;11.83;;;;;;;0.58;74.45;98530.77;1837864;77;21179;-63
2021/01/27 07:54:09;;;;;;;15.95;11.53;;;;;;;0.58;74.56;98533.33;1832558;78;21108;-63
2021/01/27 07:57:03;;;;;;;15.00;11.90;;;;;;;0.57;74.50;98538.88;1806772;78;21544;-65
2021/01/27 07:59:42;;;;;;;17.37;11.03;;;;;;;0.56;74.56;98546.15;1776678;79;21146;-64
2021/01/27 08:02:13;;;;;;;17.92;12.13;;;;;;;0.60;74.43;98540.55;1794307;80;21107;-64
2021/01/27 08:04:49;;;;;;;18.10;11.65;;;;;;;0.60;74.41;98545.20;1794858;80;21154;-64
2021/01/27 08:07:32;;;;;;;29.67;13.45;;;;;;;0.65;74.50;98548.97;1795368;80;21103;-62
2021/01/27 08:10:25;;;;;;;15.55;11.20;;;;;;;0.71;74.28;98558.27;1795279;79;22281;-64
2021/01/27 08:12:56;;;;;;;14.60;11.60;;;;;;;0.71;73.86;98554.44;1796280;80;21052;-62
2021/01/27 08:15:29;;;;;;;17.02;11.80;;;;;;;0.68;73.72;98554.89;1796019;80;21061;-65
2021/01/27 08:18:01;;;;;;;16.15;11.60;;;;;;;0.67;73.92;98551.08;1795331;80;21162;-63
2021/01/27 08:20:34;;;;;;;;;;;;;;;0.67;74.00;98549.80;1798019;80;21685;-63
2021/01/27 08:23:05;;;;;;;17.00;12.90;;;;;;;0.69;74.23;98548.06;1796647;79;21429;-65
2021/01/27 08:25:56;;;;;;;15.23;12.33;;;;;;;0.72;73.93;98553.56;1798916;79;21052;-63
2021/01/27 08:28:41;;;;;;;16.65;11.80;;;;;;;0.72;73.90;98556.12;1798342;79;21076;-64
2021/01/27 08:31:18;;;;;;;24.05;12.93;;;;;;;0.74;73.70;98556.95;1798719;79;21117;-64
2021/01/27 08:33:53;;;;;;;14.47;10.80;;;;;;;0.72;73.95;98558.25;1798684;79;21063;-63
2021/01/27 08:36:35;;;;;;;14.87;11.53;;;;;;;0.74;73.66;98551.83;1798647;79;21845;-63
2021/01/27 08:39:09;;;;;;;16.70;11.18;;;;;;;0.75;73.93;98559.48;1797022;79;21170;-62
2021/01/27 08:42:01;;;;;;;17.87;12.10;;;;;;;0.79;73.82;98562.84;1798038;79;21118;-64
2021/01/27 08:44:37;;;;;;;16.05;11.97;;;;;;;0.81;73.86;98570.88;1786737;79;21132;-64
2021/01/27 08:47:20;;;;;;;15.58;12.35;;;;;;;0.86;73.85;98566.53;1798425;79;21036;-62
2021/01/27 08:49:57;;;;;;;16.23;11.87;;;;;;;0.88;73.85;98566.51;1798675;79;21370;-63
2021/01/27 08:52:33;;;;;;;18.12;12.28;;;;;;;0.90;73.73;98561.77;1798357;79;21150;-62
2021/01/27 08:55:05;;;;;;;17.67;12.30;;;;;;;0.93;73.63;98560.88;1798281;79;21482;-63
2021/01/27 08:57:38;;;;;;;21.27;13.88;;;;;;;0.99;73.56;98565.91;1751458;79;21080;-65
2021/01/27 09:00:35;;;;;;;17.48;11.78;;;;;;;0.96;73.23;98557.84;1798380;79;21666;-63
2021/01/27 09:03:03;;;;;;;15.83;12.40;;;;;;;0.96;73.25;98560.84;1800930;79;21212;-63
2021/01/27 09:05:38;;;;;;;15.65;11.70;;;;;;;0.94;73.37;98545.93;1811598;78;21165;-64
2021/01/27 09:08:21;;;;;;;15.68;12.88;;;;;;;0.95;73.34;98542.50;1789101;79;21155;-63
2021/01/27 09:10:59;;;;;;;16.60;12.13;;;;;;;0.91;73.30;98537.02;1815901;78;21065;-62
2021/01/27 09:13:41;;;;;;;16.30;12.25;;;;;;;0.87;73.62;98533.66;1816396;79;21117;-62
2021/01/27 09:16:18;;;;;;;17.32;12.90;;;;;;;0.87;73.72;98540.06;1816274;78;21366;-63
2021/01/27 09:19:02;;;;;;;17.20;13.43;;;;;;;0.85;73.76;98543.52;1816271;79;21107;-63
2021/01/27 09:21:31;;;;;;;16.27;12.40;;;;;;;0.84;73.49;98528.59;1816313;78;21152;-63
2021/01/27 09:24:24;;;;;;;13.75;11.55;;;;;;;0.77;73.66;98518.51;1813761;79;21053;-62
2021/01/27 09:26:55;;;;;;;17.62;13.53;;;;;;;0.74;73.71;98526.23;1813542;79;21466;-63
2021/01/27 09:29:34;;;;;;;15.05;11.90;;;;;;;0.73;73.89;98529.23;1813443;79;21354;-62
2021/01/27 09:32:13;;;;;;;16.27;12.85;;;;;;;0.73;74.10;98523.27;1813435;79;21992;-62
2021/01/27 09:34:41;;;;;;;15.20;11.30;;;;;;;0.74;74.06;98532.63;1813434;79;21144;-65
2021/01/27 09:37:23;;;;;;;16.80;12.95;;;;;;;0.74;73.95;98533.48;1802080;79;21251;-62
2021/01/27 09:40:08;;;;;;;18.65;12.10;;;;;;;0.75;73.75;98527.48;1804419;79;21081;-63
2021/01/27 09:42:36;;;;;;;15.45;11.93;;;;;;;0.74;73.68;98528.36;1808788;79;21200;-63
2021/01/27 09:45:10;;;;;;;15.48;11.48;;;;;;;0.72;73.38;98535.65;1809395;78;21153;-63
2021/01/27 09:47:42;;;;;;;17.65;12.07;;;;;;;0.70;73.80;98516.48;1812206;79;21176;-62
2021/01/27 09:50:11;;;;;;;17.45;11.95;;;;;;;0.71;73.79;98518.61;1792477;78;21130;-63
2021/01/27 09:52:41;;;;;;;20.10;13.90;;;;;;;0.73;74.15;98521.98;1790815;80;21139;-62
2021/01/27 09:55:14;;;;;;;18.15;12.75;;;;;;;0.75;73.90;98518.53;1789668;80;21379;-63
2021/01/27 09:57:42;;;;;;;16.17;11.70;;;;;;;0.80;73.85;98509.03;1789666;80;21177;-64
2021/01/27 10:00:15;;;;;;;15.45;11.75;;;;;;;0.81;73.40;98500.48;1790452;80;21138;-62
2021/01/27 10:02:43;;;;;;;16.42;11.97;;;;;;;0.81;73.35;98500.92;1789744;80;21083;-63
2021/01/27 10:05:36;;;;;;;18.45;11.63;;;;;;;0.81;73.19;98495.80;1790771;78;21084;-63
2021/01/27 10:08:35;;;;;;;16.87;11.53;;;;;;;0.86;73.19;98492.73;1793297;79;21435;-63
2021/01/27 10:11:12;;;;;;;18.42;13.48;;;;;;;0.90;72.53;98501.61;1792812;79;21141;-62
2021/01/27 10:13:41;;;;;;;17.45;11.95;;;;;;;0.93;72.36;98490.48;1798102;79;21158;-62
2021/01/27 10:16:14;;;;;;;16.20;11.60;;;;;;;0.95;72.49;98489.58;1793850;79;21624;-62
2021/01/27 10:18:44;;;;;;;18.50;11.57;;;;;;;0.97;72.21;98488.28;1792283;80;21158;-65
2021/01/27 10:21:15;;;;;;;16.45;12.15;;;;;;;1.00;72.12;98485.63;1794013;80;21357;-62
2021/01/27 10:23:46;;;;;;;18.70;11.93;;;;;;;0.99;71.63;98498.05;1795328;78;21694;-63
2021/01/27 10:26:38;;;;;;;18.62;12.30;;;;;;;0.97;71.58;98487.00;1796112;79;22233;-61
2021/01/27 10:29:23;;;;;;;14.93;10.82;;;;;;;0.96;71.13;98486.16;1866102;76;22701;-64
2021/01/27 10:31:54;;;;;;;13.93;10.53;;;;;;;0.88;71.15;98485.44;1798088;78;21711;-65
2021/01/27 10:34:43;;;;;;;15.35;11.33;;;;;;;0.88;71.34;98489.28;1784646;78;21366;-63
2021/01/27 10:37:32;;;;;;;15.18;11.53;;;;;;;0.87;71.26;98487.59;1838231;78;21160;-63
2021/01/27 10:40:25;;;;;;;14.60;10.88;;;;;;;0.86;71.26;98478.66;1837987;78;21177;-63
2021/01/27 10:42:59;;;;;;;13.60;10.72;;;;;;;0.83;71.57;98491.07;1831399;78;21183;-64
2021/01/27 10:45:41;;;;;;;18.77;11.83;;;;;;;0.83;71.79;98492.78;1823980;78;21188;-63
2021/01/27 10:48:27;;;;;;;15.83;10.88;;;;;;;0.79;71.96;98490.74;1841130;78;21126;-63
2021/01/27 10:51:05;;;;;;;24.35;10.93;;;;;;;0.80;71.87;98479.59;1823796;77;21165;-62
2021/01/27 10:53:45;;;;;;;13.72;11.50;;;;;;;0.81;72.19;98477.45;1747616;82;21082;-64
2021/01/27 10:56:15;;;;;;;18.30;11.70;;;;;;;0.87;72.15;98476.06;1699818;83;21065;-64
2021/01/27 10:58:42;;;;;;;15.18;11.30;;;;;;;0.92;71.92;98473.43;1739553;81;22054;-64
2021/01/27 11:01:10;;;;;;;15.53;10.68;;;;;;;0.96;71.83;98473.78;1749164;81;22380;-66
2021/01/27 11:03:40;;;;;;;12.73;10.20;;;;;;;0.96;71.33;98470.79;1750379;81;21607;-63
2021/01/27 11:06:09;;;;;;;13.35;10.30;;;;;;;0.92;70.65;98470.88;1752812;81;21603;-64
2021/01/27 11:08:37;;;;;;;14.10;10.25;;;;;;;0.87;70.46;98469.67;1751970;81;21652;-66
2021/01/27 11:11:05;;;;;;;12.80;9.48;;;;;;;0.81;70.76;98462.53;1749387;81;21464;-64
2021/01/27 11:13:35;;;;;;;14.18;10.88;;;;;;;0.80;70.75;98467.27;1750501;81;21375;-65
2021/01/27 11:16:05;;;;;;;12.60;9.80;;;;;;;0.80;70.90;98466.80;1751120;81;21186;-63
2021/01/27 11:18:35;;;;;;;14.43;9.68;;;;;;;0.86;70.97;98474.81;1748612;81;21169;-64
2021/01/27 11:21:05;;;;;;;12.25;9.35;;;;;;;0.84;70.26;98459.48;1738827;81;21165;-64
2021/01/27 11:23:32;;;;;;;13.08;9.05;;;;;;;0.83;70.28;98464.62;1740470;82;21082;-63
2021/01/27 11:26:00;;;;;;;11.57;9.38;;;;;;;0.82;70.19;98456.54;1766552;79;21209;-62
2021/01/27 11:28:29;;;;;;;16.12;10.70;;;;;;;0.77;70.22;98448.97;1761131;80;21149;-66
2021/01/27 11:31:29;;;;;;;18.62;10.45;;;;;;;0.74;70.57;98440.50;1741611;82;21094;-63
2021/01/27 11:33:58;;;;;;;16.93;11.33;;;;;;;0.75;71.06;98434.08;1747819;82;22118;-64
2021/01/27 11:36:25;;;;;;;14.50;10.72;;;;;;;0.80;71.06;98429.69;1759584;81;21217;-64
2021/01/27 11:38:53;;;;;;;13.15;9.50;;;;;;;0.82;70.93;98427.95;1753376;80;21222;-64
2021/01/27 11:41:23;;;;;;;16.23;10.82;;;;;;;0.83;70.75;98431.35;1770792;80;21206;-64
2021/01/27 11:43:51;;;;;;;12.25;9.43;;;;;;;0.85;70.71;98438.13;1750956;81;21198;-65
2021/01/27 11:46:19;;;;;;;16.02;10.45;;;;;;;0.85;70.24;98440.70;1749254;81;21204;-64
2021/01/27 11:48:48;;;;;;;12.68;10.10;;;;;;;0.85;70.21;98434.30;1760718;81;21189;-63
2021/01/27 11:51:15;;;;;;;14.95;10.20;;;;;;;0.81;70.25;98436.50;1718029;82;21206;-63
2021/01/27 11:53:47;;;;;;;12.40;9.83;;;;;;;0.79;70.22;98423.35;1711420;82;21178;-64
2021/01/27 11:56:15;;;;;;;11.18;9.58;;;;;;;0.78;69.78;98426.78;1736724;82;21173;-64
2021/01/27 11:58:43;;;;;;;17.15;10.48;;;;;;;0.78;70.11;98425.50;1763848;81;21519;-63
2021/01/27 12:01:12;;;;;;;11.83;9.73;;;;;;;0.80;70.69;98418.64;1767557;79;21071;-62
2021/01/27 12:03:41;;;;;;;16.42;9.93;;;;;;;0.87;70.82;98425.30;1752506;81;21333;-63
2021/01/27 12:06:10;;;;;;;12.60;8.98;;;;;;;0.92;70.17;98426.91;1767157;80;21148;-63
2021/01/27 12:08:39;;;;;;;11.28;9.20;;;;;;;0.95;69.73;98414.49;1767471;80;21532;-63
2021/01/27 12:11:07;;;;;;;10.98;7.62;;;;;;;0.98;69.25;98419.56;1767183;81;21121;-63
2021/01/27 12:13:35;;;;;;;10.78;8.13;;;;;;;0.97;68.30;98413.59;1767470;80;21075;-63
2021/01/27 12:16:05;;;;;;;12.63;9.25;;;;;;;0.95;68.23;98419.17;1767178;81;21344;-63